Verndale, MN (56481)

9:27 PM CDT on July 30, 2016 (GMT -0500)
Staples Municipal | | Change Station

Elev 1286 ft 46.38 °N, 94.81 °W | Updated 14 minutes ago

Clear
Clear
72 °F
Feels Like 72 °F
N
0
Wind Variable Wind from North

Today
High -- | Low -- °F
--% Chance of Precip.
Yesterday
High -- | Low -- °F
Precip. -- in
Pressure 29.97 in
Visibility 10.0 miles
Clouds Clear
Dew Point 59 °F
Humidity 64%
Rainfall 0.00 in
Snow Depth Not available.
5:59 AM 8:52 PM
Waning Crescent, 9% visible
METAR KSAZ 310213Z AUTO 00000KT 10SM CLR 22/15 A2997 RMK AO2
Pressure 29.97 in
Visibility 10.0 miles
Clouds Clear
Dew Point 59 °F
Humidity 64%
Rainfall 0.00 in
Snow Depth Not available.
5:59 AM 8:52 PM
Waning Crescent, 9% visible
METAR KSAZ 310213Z AUTO 00000KT 10SM CLR 22/15 A2997 RMK AO2

10-Day Weather Forecast

Almanac

Astronomy

Jul. 30, 2016 Rise Set
Actual Time
Civil Twilight
Nautical Twilight
Astronomical Twilight
Moon
Length of Visible Light
Length of Day
Tomorrow will be .
, % of the Moon is Illuminated

Today's Extremes

State Highs State Lows

Community

WunderPhotos

Upload Photos

1,928,713 photos uploaded!

WunderBlog® & News

Nearby

Air Quality

  Air Quality AQ Index Pollutant
Not available.

Snow Depth

Station Depth Elevation

Earthquake Activity

City Distance Mag. Time & Date
Minimum magnitude displayed is 2.5.

Coastal Water Temperatures

Place Temperature

Stations

Nearby Weather Stations

Station Location Temp. Windchill Dew Point Humidity Wind Precip. Elev Updated Type
                   

Watches & Warnings

There are currently no watches in effect.